createdAt,value
2018-04-16T00:02:32.803Z,95.08
2018-04-16T00:05:35.268Z,95.31
2018-04-16T00:08:37.758Z,95.63
2018-04-16T00:11:40.193Z,96.08
2018-04-16T00:14:42.688Z,96.23
2018-04-16T00:17:45.117Z,96.33
2018-04-16T00:20:47.592Z,96.79
2018-04-16T00:23:50.025Z,96.76
2018-04-16T00:26:52.540Z,96.91
2018-04-16T00:29:55.126Z,97.24
2018-04-16T00:33:03.202Z,97.24
2018-04-16T00:36:11.257Z,97.37
2018-04-16T00:39:19.438Z,97.40
2018-04-16T00:42:27.619Z,97.39
2018-04-16T00:49:22.474Z,97.36
2018-04-16T00:52:30.511Z,97.38
2018-04-16T00:55:38.636Z,97.52
2018-04-16T00:58:46.780Z,97.68
2018-04-16T01:01:54.915Z,97.76
2018-04-16T01:05:03.145Z,97.97
2018-04-16T01:08:11.311Z,98.65
2018-04-16T01:11:19.439Z,98.69
2018-04-16T01:14:27.499Z,97.68
2018-04-16T01:17:35.644Z,97.21
2018-04-16T01:20:43.691Z,97.08
2018-04-16T01:23:51.680Z,96.29
2018-04-16T01:27:11.951Z,95.91
2018-04-16T01:30:19.912Z,96.29
2018-04-16T01:33:43.207Z,96.82
2018-04-16T01:37:01.325Z,97.56
2018-04-16T01:40:23.611Z,96.97
2018-04-16T01:43:31.702Z,96.50
2018-04-16T01:46:39.813Z,96.78
2018-04-16T01:49:47.815Z,97.23
2018-04-16T01:52:55.942Z,97.51
2018-04-16T01:56:04.120Z,97.77
2018-04-16T01:59:12.334Z,97.45
2018-04-16T02:02:20.542Z,97.26
2018-04-16T02:05:28.621Z,96.84
2018-04-16T02:08:36.733Z,96.46
2018-04-16T02:11:44.840Z,96.28
2018-04-16T02:14:52.787Z,96.60
2018-04-16T02:18:00.845Z,96.76
2018-04-16T02:21:09.052Z,96.89
2018-04-16T02:24:17.125Z,97.19
2018-04-16T02:27:25.250Z,96.98
2018-04-16T02:30:33.368Z,96.97
2018-04-16T02:33:41.360Z,96.76
2018-04-16T02:36:49.349Z,96.33
2018-04-16T02:39:57.550Z,96.40
2018-04-16T02:43:05.549Z,96.56
2018-04-16T02:46:13.616Z,96.82
2018-04-16T02:49:21.837Z,97.01
2018-04-16T02:52:29.929Z,96.94
2018-04-16T02:55:37.995Z,97.23
2018-04-16T02:58:46.086Z,97.30
2018-04-16T03:01:54.145Z,97.23
2018-04-16T03:05:02.261Z,97.06
2018-04-16T03:08:10.383Z,96.03
2018-04-16T03:11:18.529Z,96.53
2018-04-16T03:14:26.638Z,97.16
2018-04-16T03:17:34.752Z,97.26
2018-04-16T03:20:52.058Z,96.78
2018-04-16T03:24:00.152Z,96.13
2018-04-16T03:27:08.174Z,95.97
2018-04-16T03:30:16.196Z,95.72
2018-04-16T03:33:24.382Z,95.81
2018-04-16T03:36:32.549Z,96.28
2018-04-16T03:39:40.726Z,97.10
2018-04-16T03:42:48.729Z,97.00
2018-04-16T03:45:56.884Z,97.08
2018-04-16T03:49:05.109Z,97.38
2018-04-16T03:52:13.134Z,97.61
2018-04-16T03:55:36.459Z,97.81
2018-04-16T03:58:38.928Z,97.32
2018-04-16T04:01:41.555Z,96.84
2018-04-16T04:04:43.985Z,96.32
2018-04-16T04:07:46.484Z,95.85
2018-04-16T04:10:48.963Z,95.00
2018-04-16T04:13:51.489Z,94.87
2018-04-16T04:16:54.000Z,94.40
2018-04-16T04:19:56.528Z,94.14
2018-04-16T04:23:10.889Z,93.89
2018-04-16T04:26:25.185Z,93.95
2018-04-16T04:29:39.444Z,94.09
2018-04-16T04:32:41.889Z,93.68
2018-04-16T04:35:44.378Z,93.72
2018-04-16T04:38:46.856Z,93.82
2018-04-16T04:41:49.363Z,94.20
2018-04-16T04:44:51.925Z,94.22
2018-04-16T04:47:54.425Z,94.64
2018-04-16T04:50:56.868Z,94.49
2018-04-16T04:53:59.359Z,93.75
2018-04-16T04:57:01.905Z,93.09
2018-04-16T05:00:04.350Z,93.31
2018-04-16T05:03:06.818Z,92.11
2018-04-16T05:06:09.325Z,92.14
2018-04-16T05:09:11.839Z,91.48
2018-04-16T05:12:14.479Z,91.43
2018-04-16T05:15:16.948Z,91.17
2018-04-16T05:18:19.432Z,90.92
2018-04-16T05:21:21.894Z,90.63
2018-04-16T05:24:24.400Z,90.57
2018-04-16T05:27:26.864Z,89.84
2018-04-16T05:30:29.432Z,87.98
2018-04-16T05:33:31.884Z,87.07
2018-04-16T05:36:34.365Z,86.68
2018-04-16T05:39:36.841Z,86.33
2018-04-16T05:42:39.347Z,85.12
2018-04-16T05:45:41.851Z,82.26
2018-04-16T05:48:44.320Z,77.99
2018-04-16T05:51:46.810Z,76.43
2018-04-16T05:54:49.289Z,75.95
2018-04-16T05:57:51.797Z,77.24
2018-04-16T06:00:54.316Z,76.22
2018-04-16T06:03:56.820Z,73.90
2018-04-16T06:06:59.365Z,71.98
2018-04-16T06:10:01.888Z,68.12
2018-04-16T06:13:04.401Z,66.11
2018-04-16T06:16:06.907Z,65.55
2018-04-16T06:19:09.428Z,64.11
2018-04-16T06:22:11.945Z,65.99
2018-04-16T06:25:14.439Z,68.94
2018-04-16T06:28:16.899Z,69.46
2018-04-16T06:31:19.384Z,69.95
2018-04-16T06:34:21.890Z,71.22
2018-04-16T06:37:24.345Z,69.30
2018-04-16T06:40:26.853Z,67.86
2018-04-16T06:43:29.416Z,67.21
2018-04-16T06:46:31.915Z,66.76
2018-04-16T06:49:34.451Z,67.76
2018-04-16T06:52:37.030Z,67.97
2018-04-16T06:55:39.494Z,69.49
2018-04-16T06:58:42.065Z,68.58
2018-04-16T07:01:44.570Z,69.55
2018-04-16T07:04:47.158Z,72.25
2018-04-16T07:07:49.688Z,69.78
2018-04-16T07:10:52.175Z,69.85
2018-04-16T07:13:54.746Z,70.45
2018-04-16T07:16:57.254Z,70.11
2018-04-16T07:19:59.749Z,69.94
2018-04-16T07:23:02.327Z,72.16
2018-04-16T07:26:04.777Z,70.94
2018-04-16T07:29:07.293Z,69.87
2018-04-16T07:32:09.808Z,72.16
2018-04-16T07:35:12.369Z,70.10
2018-04-16T07:38:14.865Z,71.71
2018-04-16T07:41:17.390Z,71.31
2018-04-16T07:44:19.903Z,70.66
2018-04-16T07:47:22.385Z,73.31
2018-04-16T07:50:24.980Z,70.39
2018-04-16T07:53:27.469Z,72.81
2018-04-16T07:56:30.003Z,69.77
2018-04-16T07:59:32.518Z,69.18
2018-04-16T08:02:34.953Z,69.49
2018-04-16T08:05:37.463Z,68.52
2018-04-16T08:08:39.987Z,66.77
2018-04-16T08:11:42.553Z,66.88
2018-04-16T08:14:45.083Z,65.33
2018-04-16T08:17:47.558Z,64.53
2018-04-16T08:20:50.060Z,67.93
2018-04-16T08:23:52.551Z,66.29
2018-04-16T08:26:55.089Z,67.67
2018-04-16T08:29:57.596Z,66.81
2018-04-16T08:33:00.093Z,67.61
2018-04-16T08:36:02.544Z,66.49
2018-04-16T08:39:05.899Z,66.52
2018-04-16T08:42:08.397Z,65.39
2018-04-16T08:45:11.012Z,67.23
2018-04-16T08:48:13.467Z,66.75
2018-04-16T08:51:15.977Z,65.97
2018-04-16T08:54:18.468Z,67.51
2018-04-16T08:57:20.975Z,67.20
2018-04-16T09:00:23.531Z,66.37
2018-04-16T09:03:26.106Z,65.26
2018-04-16T09:06:28.592Z,66.31
2018-04-16T09:09:31.076Z,65.30
2018-04-16T09:12:33.551Z,63.89
2018-04-16T09:15:36.020Z,63.44
2018-04-16T09:18:38.565Z,65.53
2018-04-16T09:21:41.084Z,65.87
2018-04-16T09:24:43.593Z,63.31
2018-04-16T09:27:46.057Z,65.42
2018-04-16T09:30:48.636Z,65.35
2018-04-16T09:33:51.103Z,66.93
2018-04-16T09:36:53.588Z,64.05
2018-04-16T09:39:56.079Z,63.73
2018-04-16T09:42:58.561Z,62.67
2018-04-16T09:46:01.101Z,60.44
2018-04-16T09:49:03.608Z,59.86
2018-04-16T09:52:06.122Z,59.94
2018-04-16T09:55:08.617Z,58.85
2018-04-16T09:58:11.123Z,59.86
2018-04-16T10:01:19.295Z,59.12
2018-04-16T10:04:21.779Z,60.99
2018-04-16T10:07:24.287Z,60.27
2018-04-16T10:10:26.771Z,58.47
2018-04-16T10:13:32.551Z,57.96
2018-04-16T10:16:35.207Z,59.44
2018-04-16T10:19:37.834Z,60.31
2018-04-16T10:22:40.351Z,60.05
2018-04-16T10:25:42.807Z,56.38
2018-04-16T10:28:45.319Z,55.09
2018-04-16T10:31:47.809Z,55.86
2018-04-16T10:34:50.308Z,53.53
2018-04-16T10:37:52.807Z,52.53
2018-04-16T10:40:55.262Z,54.59
2018-04-16T10:43:57.783Z,49.74
2018-04-16T10:47:00.267Z,49.80
2018-04-16T10:50:02.764Z,54.38
2018-04-16T10:53:05.229Z,57.33
2018-04-16T10:56:07.729Z,58.52
2018-04-16T10:59:10.344Z,58.19
2018-04-16T11:02:12.872Z,59.96
2018-04-16T11:05:15.324Z,60.32
2018-04-16T11:08:17.823Z,59.99
2018-04-16T11:11:20.328Z,60.12
2018-04-16T11:14:22.837Z,58.38
2018-04-16T11:17:25.444Z,55.93
2018-04-16T11:20:27.917Z,57.49
2018-04-16T11:23:30.432Z,56.73
2018-04-16T11:26:32.964Z,56.20
2018-04-16T11:29:35.422Z,54.74
2018-04-16T11:32:37.920Z,54.04
2018-04-16T11:35:40.417Z,55.67
2018-04-16T11:38:43.093Z,56.07
2018-04-16T11:41:45.612Z,54.16
2018-04-16T11:44:48.450Z,55.28
2018-04-16T11:47:50.964Z,54.66
2018-04-16T11:50:53.487Z,56.42
2018-04-16T11:53:56.052Z,56.87
2018-04-16T11:56:58.617Z,56.27
2018-04-16T12:00:01.073Z,53.58
2018-04-16T12:03:04.456Z,53.79
2018-04-16T12:06:06.974Z,54.77
2018-04-16T12:09:09.526Z,56.96
2018-04-16T12:12:12.053Z,58.74
2018-04-16T12:15:14.605Z,59.86
2018-04-16T12:18:17.293Z,59.09
2018-04-16T12:21:19.775Z,60.59
2018-04-16T12:24:22.301Z,59.79
2018-04-16T12:27:24.778Z,59.83
2018-04-16T12:30:27.335Z,57.58
2018-04-16T12:33:29.814Z,61.60
2018-04-16T12:36:32.384Z,60.98
2018-04-16T12:39:34.886Z,61.77
2018-04-16T12:42:37.352Z,61.86
2018-04-16T12:45:39.831Z,60.74
2018-04-16T12:48:42.345Z,57.57
2018-04-16T12:51:44.829Z,59.51
2018-04-16T12:54:47.385Z,58.16
2018-04-16T12:57:49.849Z,55.02
2018-04-16T13:00:52.479Z,55.41
2018-04-16T13:03:54.939Z,55.50
2018-04-16T13:06:57.415Z,55.56
2018-04-16T13:09:59.926Z,54.86
2018-04-16T13:13:02.577Z,55.84
2018-04-16T13:16:05.085Z,55.20
2018-04-16T13:19:07.618Z,54.39
2018-04-16T13:22:10.115Z,53.93
2018-04-16T13:25:12.626Z,53.25
2018-04-16T13:28:15.093Z,52.06
2018-04-16T13:31:17.585Z,49.93
2018-04-16T13:34:20.116Z,51.38
2018-04-16T13:37:22.577Z,50.50
2018-04-16T13:40:25.144Z,48.99
2018-04-16T13:43:27.666Z,48.39
2018-04-16T13:46:30.260Z,48.21
2018-04-16T13:49:32.701Z,46.47
2018-04-16T13:52:35.282Z,47.60
2018-04-16T13:55:37.770Z,47.08
2018-04-16T13:58:40.280Z,48.47
2018-04-16T14:01:42.797Z,48.72
2018-04-16T14:04:45.430Z,51.04
2018-04-16T14:07:47.994Z,51.24
2018-04-16T14:10:50.470Z,52.01
2018-04-16T14:13:52.980Z,52.11
2018-04-16T14:16:55.449Z,52.92
2018-04-16T14:19:57.940Z,53.88
2018-04-16T14:23:00.485Z,53.60
2018-04-16T14:26:03.049Z,54.33
2018-04-16T14:29:05.532Z,55.35
2018-04-16T14:32:08.095Z,52.03
2018-04-16T14:35:10.609Z,52.14
2018-04-16T14:38:13.131Z,54.88
2018-04-16T14:41:15.660Z,53.36
2018-04-16T14:44:18.215Z,54.83
2018-04-16T14:47:20.905Z,52.72
2018-04-16T14:50:32.529Z,54.35
2018-04-16T14:53:35.387Z,52.69
2018-04-16T14:56:37.965Z,50.87
2018-04-16T14:59:40.386Z,52.80
2018-04-16T15:02:42.934Z,52.98
2018-04-16T15:05:45.517Z,53.38
2018-04-16T15:08:47.990Z,51.79
2018-04-16T15:11:50.597Z,52.32
2018-04-16T15:14:53.122Z,55.42
2018-04-16T15:17:55.646Z,54.93
2018-04-16T15:20:58.165Z,53.61
2018-04-16T15:24:00.640Z,53.68
2018-04-16T15:27:04.374Z,53.39
2018-04-16T15:30:06.856Z,54.26
2018-04-16T15:33:09.360Z,54.28
2018-04-16T15:36:11.963Z,55.10
2018-04-16T15:39:14.463Z,54.68
2018-04-16T15:42:16.992Z,54.35
2018-04-16T15:45:20.739Z,53.14
2018-04-16T15:48:23.217Z,52.64
2018-04-16T15:51:25.715Z,51.97
2018-04-16T15:54:28.210Z,51.37
2018-04-16T15:57:30.725Z,53.43
2018-04-16T16:00:33.280Z,54.62
2018-04-16T16:03:35.843Z,53.81
2018-04-16T16:06:38.293Z,54.72
2018-04-16T16:09:40.796Z,54.30
2018-04-16T16:12:43.277Z,55.53
2018-04-16T16:15:45.808Z,55.33
2018-04-16T16:18:48.349Z,57.00
2018-04-16T16:21:50.905Z,57.05
2018-04-16T16:24:53.473Z,56.97
2018-04-16T16:27:55.930Z,57.87
2018-04-16T16:30:58.496Z,58.07
2018-04-16T16:34:01.019Z,58.40
2018-04-16T16:37:03.554Z,59.21
2018-04-16T16:40:06.042Z,59.61
2018-04-16T16:43:08.624Z,59.85
2018-04-16T16:46:11.158Z,60.47
2018-04-16T16:49:13.713Z,60.55
2018-04-16T16:52:17.302Z,60.96
2018-04-16T16:55:19.897Z,61.57
2018-04-16T16:58:22.447Z,61.89
2018-04-16T17:01:25.151Z,61.95
2018-04-16T17:04:27.817Z,61.67
2018-04-16T17:07:30.310Z,62.45
2018-04-16T17:10:32.846Z,62.80
2018-04-16T17:13:35.430Z,63.05
2018-04-16T17:16:37.935Z,63.21
2018-04-16T17:19:40.436Z,63.53
2018-04-16T17:22:43.066Z,63.82
2018-04-16T17:25:45.641Z,64.10
2018-04-16T17:28:48.218Z,63.89
2018-04-16T17:31:50.856Z,63.69
2018-04-16T17:34:53.381Z,63.69
2018-04-16T17:37:55.909Z,63.18
2018-04-16T17:40:58.502Z,61.90
2018-04-16T17:44:01.043Z,61.67
2018-04-16T17:47:03.638Z,61.71
2018-04-16T17:50:06.151Z,61.39
2018-04-16T17:53:08.649Z,61.75
2018-04-16T17:56:11.254Z,61.42
2018-04-16T17:59:13.757Z,61.79
2018-04-16T18:02:16.363Z,63.32
2018-04-16T18:05:18.973Z,64.17
2018-04-16T18:08:21.505Z,64.95
2018-04-16T18:11:24.091Z,66.15
2018-04-16T18:14:26.647Z,67.17
2018-04-16T18:17:29.288Z,67.78
2018-04-16T18:20:31.890Z,68.35
2018-04-16T18:23:34.414Z,69.09
2018-04-16T18:26:36.931Z,69.69
2018-04-16T18:32:48.248Z,71.10
2018-04-16T18:35:50.837Z,71.61
2018-04-16T18:38:53.347Z,72.29
2018-04-16T18:41:55.884Z,72.70
2018-04-16T18:44:58.529Z,73.56
2018-04-16T18:48:01.057Z,73.89
2018-04-16T18:51:03.583Z,74.22
2018-04-16T18:54:06.064Z,74.62
2018-04-16T18:57:08.683Z,74.87
2018-04-16T19:00:11.253Z,75.24
2018-04-16T19:03:13.789Z,75.44
2018-04-16T19:06:16.380Z,75.54
2018-04-16T19:09:18.895Z,75.57
2018-04-16T19:12:21.433Z,75.07
2018-04-16T19:15:23.966Z,74.22
2018-04-16T19:18:26.504Z,74.01
2018-04-16T19:21:34.561Z,74.14
2018-04-16T19:24:37.096Z,73.72
2018-04-16T19:33:13.211Z,72.95
2018-04-16T19:36:15.813Z,72.70
2018-04-16T19:39:18.360Z,72.57
2018-04-16T19:42:26.449Z,72.58
2018-04-16T19:45:29.005Z,72.77
2018-04-16T19:48:36.987Z,73.24
2018-04-16T19:51:39.464Z,73.73
2018-04-16T19:54:41.964Z,74.21
2018-04-16T19:57:50.322Z,74.69
2018-04-16T20:00:52.808Z,74.72
2018-04-16T20:04:00.228Z,75.40
2018-04-16T20:07:02.798Z,75.70
2018-04-16T20:10:05.341Z,76.03
2018-04-16T20:13:07.898Z,76.53
2018-04-16T20:16:10.427Z,77.50
2018-04-16T20:19:13.020Z,77.82
2018-04-16T20:22:15.508Z,78.56
2018-04-16T20:25:18.139Z,78.94
2018-04-16T20:28:20.720Z,79.15
2018-04-16T20:31:23.220Z,79.13
2018-04-16T20:34:25.731Z,79.43
2018-04-16T20:37:28.245Z,79.99
2018-04-16T20:40:30.730Z,80.63
2018-04-16T20:43:33.299Z,80.81
2018-04-16T20:46:35.769Z,81.62
2018-04-16T20:49:38.321Z,81.88
2018-04-16T20:52:40.769Z,81.87
2018-04-16T20:55:43.276Z,82.35
2018-04-16T20:58:45.821Z,83.06
2018-04-16T21:01:48.299Z,83.23
2018-04-16T21:04:50.779Z,83.54
2018-04-16T21:07:53.362Z,84.94
2018-04-16T21:10:55.894Z,85.87
2018-04-16T21:13:58.383Z,86.52
2018-04-16T21:17:00.911Z,87.39
2018-04-16T21:20:03.412Z,87.73
2018-04-16T21:23:05.938Z,87.75
2018-04-16T21:26:08.448Z,87.77
2018-04-16T21:29:10.981Z,88.15
2018-04-16T21:32:13.494Z,88.83
2018-04-16T21:35:16.010Z,89.43
2018-04-16T21:38:18.509Z,89.37
2018-04-16T21:41:21.005Z,89.46
2018-04-16T21:44:23.560Z,90.46
2018-04-16T21:47:26.019Z,90.21
2018-04-16T21:50:28.550Z,90.10
2018-04-16T21:53:31.068Z,90.60
2018-04-16T21:56:33.528Z,90.45
2018-04-16T21:59:36.059Z,90.33
2018-04-16T22:02:38.540Z,90.08
2018-04-16T22:05:41.033Z,89.87
2018-04-16T22:08:43.463Z,89.93
2018-04-16T22:11:45.946Z,90.05
2018-04-16T22:14:48.408Z,90.47
2018-04-16T22:17:51.411Z,90.95
2018-04-16T22:20:53.869Z,91.54
2018-04-16T22:23:56.339Z,91.46
2018-04-16T22:26:58.839Z,91.44
2018-04-16T22:30:01.319Z,91.66
2018-04-16T22:33:03.918Z,91.79
2018-04-16T22:36:06.411Z,92.03
2018-04-16T22:39:08.918Z,92.15
2018-04-16T22:42:11.404Z,92.34
2018-04-16T22:45:13.945Z,92.89
2018-04-16T22:48:16.428Z,93.31
2018-04-16T22:51:18.939Z,93.18
2018-04-16T22:54:21.394Z,93.49
2018-04-16T22:57:23.974Z,93.81
2018-04-16T23:00:26.465Z,93.84
2018-04-16T23:03:28.909Z,94.11
2018-04-16T23:06:31.425Z,94.35
2018-04-16T23:09:33.926Z,94.36
2018-04-16T23:12:36.420Z,94.53
2018-04-16T23:15:38.917Z,94.58
2018-04-16T23:18:41.390Z,94.84
2018-04-16T23:21:43.994Z,94.76
2018-04-16T23:24:46.484Z,95.04
2018-04-16T23:27:48.950Z,95.23
2018-04-16T23:30:51.465Z,95.67
2018-04-16T23:33:53.941Z,95.61
2018-04-16T23:36:56.583Z,95.80
2018-04-16T23:39:59.062Z,95.84
2018-04-16T23:43:01.514Z,95.84
2018-04-16T23:46:04.060Z,96.03
2018-04-16T23:49:06.552Z,96.20
2018-04-16T23:52:09.030Z,96.28
2018-04-16T23:55:11.463Z,96.35
2018-04-16T23:58:13.982Z,96.51
